sensor_id;sensor_type;location;lat;lon;timestamp;pressure;altitude;pressure_sealevel;temperature;humidity
61571;BME280;47463;49.884;10.010;2023-03-03T00:00:01;102270;;;1.8;67
61571;BME280;47463;49.884;10.010;2023-03-03T00:05:01;102270;;;1.8;68
61571;BME280;47463;49.884;10.010;2023-03-03T00:10:01;102280;;;1.7;68
61571;BME280;47463;49.884;10.010;2023-03-03T00:15:01;102270;;;1.7;69
61571;BME280;47463;49.884;10.010;2023-03-03T00:20:01;102280;;;1.7;70
61571;BME280;47463;49.884;10.010;2023-03-03T00:25:01;102290;;;1.7;70
61571;BME280;47463;49.884;10.010;2023-03-03T00:30:01;102270;;;1.6;70
61571;BME280;47463;49.884;10.010;2023-03-03T00:35:01;102280;;;1.5;71
61571;BME280;47463;49.884;10.010;2023-03-03T00:40:10;102290;;;1.5;71
61571;BME280;47463;49.884;10.010;2023-03-03T00:45:01;102290;;;1.6;71
61571;BME280;47463;49.884;10.010;2023-03-03T00:50:33;102290;;;1.6;72
61571;BME280;47463;49.884;10.010;2023-03-03T00:55:01;102290;;;1.6;72
61571;BME280;47463;49.884;10.010;2023-03-03T01:00:01;102300;;;1.6;73
61571;BME280;47463;49.884;10.010;2023-03-03T01:05:01;102300;;;1.6;73
61571;BME280;47463;49.884;10.010;2023-03-03T01:10:01;102300;;;1.5;74
61571;BME280;47463;49.884;10.010;2023-03-03T01:15:01;102300;;;1.5;74
61571;BME280;47463;49.884;10.010;2023-03-03T01:20:01;102300;;;1.5;74
61571;BME280;47463;49.884;10.010;2023-03-03T01:25:01;102300;;;1.4;75
61571;BME280;47463;49.884;10.010;2023-03-03T01:30:01;102290;;;1.3;75
61571;BME280;47463;49.884;10.010;2023-03-03T01:35:01;102280;;;1.3;76
61571;BME280;47463;49.884;10.010;2023-03-03T01:40:01;102300;;;1.3;76
61571;BME280;47463;49.884;10.010;2023-03-03T01:45:19;102290;;;1.3;76
61571;BME280;47463;49.884;10.010;2023-03-03T01:50:02;102280;;;1.3;77
61571;BME280;47463;49.884;10.010;2023-03-03T01:55:02;102280;;;1.2;77
61571;BME280;47463;49.884;10.010;2023-03-03T02:00:01;102280;;;1.3;77
61571;BME280;47463;49.884;10.010;2023-03-03T02:05:01;102260;;;1.3;77
61571;BME280;47463;49.884;10.010;2023-03-03T02:10:03;102270;;;1.2;78
61571;BME280;47463;49.884;10.010;2023-03-03T02:15:01;102270;;;1.2;78
61571;BME280;47463;49.884;10.010;2023-03-03T02:20:02;102260;;;1.2;78
61571;BME280;47463;49.884;10.010;2023-03-03T02:25:01;102250;;;1.1;79
61571;BME280;47463;49.884;10.010;2023-03-03T02:30:07;102270;;;1.2;79
61571;BME280;47463;49.884;10.010;2023-03-03T02:35:01;102280;;;1.1;79
61571;BME280;47463;49.884;10.010;2023-03-03T02:40:01;102270;;;1.2;79
61571;BME280;47463;49.884;10.010;2023-03-03T02:45:01;102270;;;1.1;79
61571;BME280;47463;49.884;10.010;2023-03-03T02:50:01;102280;;;1;80
61571;BME280;47463;49.884;10.010;2023-03-03T02:55:01;102280;;;1.1;80
61571;BME280;47463;49.884;10.010;2023-03-03T03:00:01;102270;;;1;80
61571;BME280;47463;49.884;10.010;2023-03-03T03:05:01;102280;;;1.1;80
61571;BME280;47463;49.884;10.010;2023-03-03T03:10:01;102280;;;1.1;80
61571;BME280;47463;49.884;10.010;2023-03-03T03:15:01;102290;;;1.1;80
61571;BME280;47463;49.884;10.010;2023-03-03T03:20:01;102290;;;1;80
61571;BME280;47463;49.884;10.010;2023-03-03T03:25:01;102300;;;1;80
61571;BME280;47463;49.884;10.010;2023-03-03T03:30:01;102290;;;1;80
61571;BME280;47463;49.884;10.010;2023-03-03T03:35:01;102290;;;0.9;81
61571;BME280;47463;49.884;10.010;2023-03-03T03:40:01;102290;;;0.9;81
61571;BME280;47463;49.884;10.010;2023-03-03T03:45:01;102280;;;0.8;81
61571;BME280;47463;49.884;10.010;2023-03-03T03:50:01;102280;;;0.7;81
61571;BME280;47463;49.884;10.010;2023-03-03T03:55:01;102280;;;0.7;81
61571;BME280;47463;49.884;10.010;2023-03-03T04:00:01;102280;;;0.6;82
61571;BME280;47463;49.884;10.010;2023-03-03T04:05:01;102300;;;0.6;82
61571;BME280;47463;49.884;10.010;2023-03-03T04:10:01;102300;;;0.5;82
61571;BME280;47463;49.884;10.010;2023-03-03T04:15:01;102300;;;0.4;83
61571;BME280;47463;49.884;10.010;2023-03-03T04:20:01;102290;;;0.4;83
61571;BME280;47463;49.884;10.010;2023-03-03T04:25:01;102290;;;0.5;83
61571;BME280;47463;49.884;10.010;2023-03-03T04:30:01;102300;;;0.5;83
61571;BME280;47463;49.884;10.010;2023-03-03T04:35:01;102310;;;0.5;83
61571;BME280;47463;49.884;10.010;2023-03-03T04:40:01;102300;;;0.5;83
61571;BME280;47463;49.884;10.010;2023-03-03T04:45:01;102310;;;0.5;83
61571;BME280;47463;49.884;10.010;2023-03-03T04:50:01;102310;;;0.5;83
61571;BME280;47463;49.884;10.010;2023-03-03T04:55:01;102330;;;0.5;83
61571;BME280;47463;49.884;10.010;2023-03-03T05:00:01;102320;;;0.5;83
61571;BME280;47463;49.884;10.010;2023-03-03T05:05:01;102310;;;0.5;83
61571;BME280;47463;49.884;10.010;2023-03-03T05:10:01;102330;;;0.6;83
61571;BME280;47463;49.884;10.010;2023-03-03T05:15:01;102320;;;0.4;83
61571;BME280;47463;49.884;10.010;2023-03-03T05:20:01;102330;;;0.3;84
61571;BME280;47463;49.884;10.010;2023-03-03T05:25:01;102340;;;0.4;83
61571;BME280;47463;49.884;10.010;2023-03-03T05:30:01;102330;;;0.3;84
61571;BME280;47463;49.884;10.010;2023-03-03T05:35:01;102330;;;0.2;84
61571;BME280;47463;49.884;10.010;2023-03-03T05:40:01;102340;;;0.1;84
61571;BME280;47463;49.884;10.010;2023-03-03T05:45:01;102340;;;0.1;85
61571;BME280;47463;49.884;10.010;2023-03-03T05:50:01;102340;;;0.1;85
61571;BME280;47463;49.884;10.010;2023-03-03T05:55:01;102340;;;0.1;85
61571;BME280;47463;49.884;10.010;2023-03-03T06:00:01;102350;;;0.1;85
61571;BME280;47463;49.884;10.010;2023-03-03T06:05:01;102350;;;0.1;85
61571;BME280;47463;49.884;10.010;2023-03-03T06:10:01;102350;;;-0.1;86
61571;BME280;47463;49.884;10.010;2023-03-03T06:15:01;102360;;;-0.1;86
61571;BME280;47463;49.884;10.010;2023-03-03T06:20:01;102360;;;0.1;86
61571;BME280;47463;49.884;10.010;2023-03-03T06:25:01;102360;;;0.1;86
61571;BME280;47463;49.884;10.010;2023-03-03T06:30:01;102360;;;0.1;86
61571;BME280;47463;49.884;10.010;2023-03-03T06:35:01;102390;;;0.1;86
61571;BME280;47463;49.884;10.010;2023-03-03T06:40:01;102390;;;0.1;86
61571;BME280;47463;49.884;10.010;2023-03-03T06:45:01;102390;;;0.1;86
61571;BME280;47463;49.884;10.010;2023-03-03T06:50:01;102400;;;0.2;86
61571;BME280;47463;49.884;10.010;2023-03-03T06:55:01;102400;;;0.3;86
61571;BME280;47463;49.884;10.010;2023-03-03T07:00:05;102409.99999999999;;;0.4;85
61571;BME280;47463;49.884;10.010;2023-03-03T07:05:01;102409.99999999999;;;0.4;85
61571;BME280;47463;49.884;10.010;2023-03-03T07:10:01;102420;;;0.5;84
61571;BME280;47463;49.884;10.010;2023-03-03T07:15:09;102430;;;0.6;84
61571;BME280;47463;49.884;10.010;2023-03-03T07:20:01;102440.00000000001;;;0.5;84
61571;BME280;47463;49.884;10.010;2023-03-03T07:25:01;102450;;;0.5;84
61571;BME280;47463;49.884;10.010;2023-03-03T07:30:08;102459.99999999999;;;0.6;84
61571;BME280;47463;49.884;10.010;2023-03-03T07:35:01;102459.99999999999;;;0.7;84
61571;BME280;47463;49.884;10.010;2023-03-03T07:40:01;102470;;;0.8;84
61571;BME280;47463;49.884;10.010;2023-03-03T07:45:01;102470;;;0.9;84
61571;BME280;47463;49.884;10.010;2023-03-03T07:50:10;102490.00000000001;;;1;83
61571;BME280;47463;49.884;10.010;2023-03-03T07:55:01;102500;;;0.9;83
61571;BME280;47463;49.884;10.010;2023-03-03T08:00:03;102500;;;1;83
61571;BME280;47463;49.884;10.010;2023-03-03T08:05:01;102500;;;1;83
61571;BME280;47463;49.884;10.010;2023-03-03T08:10:01;102500;;;1;83
61571;BME280;47463;49.884;10.010;2023-03-03T08:15:10;102509.99999999999;;;1.1;83
61571;BME280;47463;49.884;10.010;2023-03-03T08:20:01;102509.99999999999;;;1.3;82
61571;BME280;47463;49.884;10.010;2023-03-03T08:25:01;102500;;;1.4;82
61571;BME280;47463;49.884;10.010;2023-03-03T08:30:01;102500;;;1.4;82
61571;BME280;47463;49.884;10.010;2023-03-03T08:35:01;102500;;;1.5;81
61571;BME280;47463;49.884;10.010;2023-03-03T08:40:01;102520;;;1.8;81
61571;BME280;47463;49.884;10.010;2023-03-03T08:45:01;102509.99999999999;;;1.5;82
61571;BME280;47463;49.884;10.010;2023-03-03T08:50:01;102520;;;1.5;82
61571;BME280;47463;49.884;10.010;2023-03-03T08:55:01;102509.99999999999;;;1.7;81
61571;BME280;47463;49.884;10.010;2023-03-03T09:00:01;102500;;;1.6;82
61571;BME280;47463;49.884;10.010;2023-03-03T09:05:01;102509.99999999999;;;1.7;81
61571;BME280;47463;49.884;10.010;2023-03-03T09:10:01;102509.99999999999;;;1.8;81
61571;BME280;47463;49.884;10.010;2023-03-03T09:15:05;102520;;;1.9;80
61571;BME280;47463;49.884;10.010;2023-03-03T09:20:03;102520;;;2.3;80
61571;BME280;47463;49.884;10.010;2023-03-03T09:25:01;102520;;;2.4;79
61571;BME280;47463;49.884;10.010;2023-03-03T09:30:02;102520;;;2.7;78
61571;BME280;47463;49.884;10.010;2023-03-03T09:35:21;102530;;;2.8;77
61571;BME280;47463;49.884;10.010;2023-03-03T09:40:01;102520;;;2.6;77
61571;BME280;47463;49.884;10.010;2023-03-03T09:45:35;102509.99999999999;;;2.9;76
61571;BME280;47463;49.884;10.010;2023-03-03T09:50:03;102520;;;3.2;77
61571;BME280;47463;49.884;10.010;2023-03-03T09:55:04;102520;;;3.3;76
61571;BME280;47463;49.884;10.010;2023-03-03T10:00:05;102530;;;3.2;76
61571;BME280;47463;49.884;10.010;2023-03-03T10:05:03;102540.00000000001;;;3.4;75
61571;BME280;47463;49.884;10.010;2023-03-03T10:10:10;102540.00000000001;;;3.4;75
61571;BME280;47463;49.884;10.010;2023-03-03T10:15:19;102540.00000000001;;;3.9;74
61571;BME280;47463;49.884;10.010;2023-03-03T10:20:05;102540.00000000001;;;4.1;73
61571;BME280;47463;49.884;10.010;2023-03-03T10:25:06;102530;;;4;73
61571;BME280;47463;49.884;10.010;2023-03-03T10:30:02;102530;;;4.2;73
61571;BME280;47463;49.884;10.010;2023-03-03T10:35:02;102530;;;4.3;72
61571;BME280;47463;49.884;10.010;2023-03-03T10:40:05;102540.00000000001;;;4.5;72
61571;BME280;47463;49.884;10.010;2023-03-03T10:45:04;102540.00000000001;;;4.8;71
61571;BME280;47463;49.884;10.010;2023-03-03T10:50:02;102540.00000000001;;;4.7;71
61571;BME280;47463;49.884;10.010;2023-03-03T10:55:05;102540.00000000001;;;4.8;70
61571;BME280;47463;49.884;10.010;2023-03-03T11:00:07;102540.00000000001;;;4.9;70
61571;BME280;47463;49.884;10.010;2023-03-03T11:05:12;102540.00000000001;;;5.1;69
61571;BME280;47463;49.884;10.010;2023-03-03T11:10:04;102530;;;5;69
61571;BME280;47463;49.884;10.010;2023-03-03T11:15:12;102530;;;5.3;68
61571;BME280;47463;49.884;10.010;2023-03-03T11:20:02;102520;;;5.5;67
61571;BME280;47463;49.884;10.010;2023-03-03T11:25:02;102520;;;5.8;67
61571;BME280;47463;49.884;10.010;2023-03-03T11:30:06;102509.99999999999;;;5.6;65
61571;BME280;47463;49.884;10.010;2023-03-03T11:35:04;102509.99999999999;;;6.1;64
61571;BME280;47463;49.884;10.010;2023-03-03T11:40:01;102509.99999999999;;;6.1;64
61571;BME280;47463;49.884;10.010;2023-03-03T11:45:01;102500;;;6.1;64
61571;BME280;47463;49.884;10.010;2023-03-03T11:50:01;102480;;;6.3;63
61571;BME280;47463;49.884;10.010;2023-03-03T11:55:01;102470;;;6.4;62
61571;BME280;47463;49.884;10.010;2023-03-03T12:00:02;102470;;;6.7;62
61571;BME280;47463;49.884;10.010;2023-03-03T12:05:03;102470;;;6.9;61
61571;BME280;47463;49.884;10.010;2023-03-03T12:10:03;102470;;;6.8;60
61571;BME280;47463;49.884;10.010;2023-03-03T12:15:04;102459.99999999999;;;6.9;60
61571;BME280;47463;49.884;10.010;2023-03-03T12:20:02;102450;;;7.3;60
61571;BME280;47463;49.884;10.010;2023-03-03T12:25:04;102430;;;7.4;58
61571;BME280;47463;49.884;10.010;2023-03-03T12:30:04;102420;;;7.4;57
61571;BME280;47463;49.884;10.010;2023-03-03T12:35:02;102409.99999999999;;;7.5;58
61571;BME280;47463;49.884;10.010;2023-03-03T12:40:02;102420;;;7.4;58
61571;BME280;47463;49.884;10.010;2023-03-03T12:45:04;102409.99999999999;;;8;58
61571;BME280;47463;49.884;10.010;2023-03-03T12:50:04;102409.99999999999;;;7.8;55
61571;BME280;47463;49.884;10.010;2023-03-03T12:55:02;102400;;;8.1;55
61571;BME280;47463;49.884;10.010;2023-03-03T13:00:37;102390;;;8.3;54
61571;BME280;47463;49.884;10.010;2023-03-03T13:05:01;102390;;;8.1;54
61571;BME280;47463;49.884;10.010;2023-03-03T13:10:02;102390;;;8.2;55
61571;BME280;47463;49.884;10.010;2023-03-03T13:15:02;102380;;;8.2;53
61571;BME280;47463;49.884;10.010;2023-03-03T13:20:02;102380;;;8.5;53
61571;BME280;47463;49.884;10.010;2023-03-03T13:25:02;102370;;;8.4;53
61571;BME280;47463;49.884;10.010;2023-03-03T13:30:01;102370;;;8.8;53
61571;BME280;47463;49.884;10.010;2023-03-03T13:35:01;102360;;;8.6;52
61571;BME280;47463;49.884;10.010;2023-03-03T13:40:02;102360;;;8.4;52
61571;BME280;47463;49.884;10.010;2023-03-03T13:45:01;102360;;;8.3;52
61571;BME280;47463;49.884;10.010;2023-03-03T13:50:02;102370;;;8.7;51
61571;BME280;47463;49.884;10.010;2023-03-03T13:55:07;102370;;;8.8;51
61571;BME280;47463;49.884;10.010;2023-03-03T14:00:04;102360;;;8.9;50
61571;BME280;47463;49.884;10.010;2023-03-03T14:05:02;102360;;;8.7;50
61571;BME280;47463;49.884;10.010;2023-03-03T14:10:02;102350;;;9.5;49
61571;BME280;47463;49.884;10.010;2023-03-03T14:15:02;102350;;;9.4;49
61571;BME280;47463;49.884;10.010;2023-03-03T14:20:04;102340;;;9.2;50
61571;BME280;47463;49.884;10.010;2023-03-03T14:25:02;102330;;;9.2;50
61571;BME280;47463;49.884;10.010;2023-03-03T14:30:23;102330;;;9.6;49
61571;BME280;47463;49.884;10.010;2023-03-03T14:35:01;102330;;;9.5;50
61571;BME280;47463;49.884;10.010;2023-03-03T14:40:09;102330;;;9.2;50
61571;BME280;47463;49.884;10.010;2023-03-03T14:45:01;102320;;;9;50
61571;BME280;47463;49.884;10.010;2023-03-03T14:50:01;102320;;;8.8;50
61571;BME280;47463;49.884;10.010;2023-03-03T14:55:01;102320;;;9;50
61571;BME280;47463;49.884;10.010;2023-03-03T15:00:03;102310;;;9.1;50
61571;BME280;47463;49.884;10.010;2023-03-03T15:05:17;102310;;;9.2;51
61571;BME280;47463;49.884;10.010;2023-03-03T15:10:01;102310;;;9.1;51
61571;BME280;47463;49.884;10.010;2023-03-03T15:15:01;102310;;;9.1;50
61571;BME280;47463;49.884;10.010;2023-03-03T15:20:12;102310;;;9;50
61571;BME280;47463;49.884;10.010;2023-03-03T15:25:03;102300;;;9.4;50
61571;BME280;47463;49.884;10.010;2023-03-03T15:30:03;102300;;;9.4;49
61571;BME280;47463;49.884;10.010;2023-03-03T15:35:03;102290;;;9.6;49
61571;BME280;47463;49.884;10.010;2023-03-03T15:40:02;102300;;;9.3;49
61571;BME280;47463;49.884;10.010;2023-03-03T15:45:02;102280;;;9;49
61571;BME280;47463;49.884;10.010;2023-03-03T15:50:09;102290;;;9;50
61571;BME280;47463;49.884;10.010;2023-03-03T15:55:05;102290;;;8.9;51
61571;BME280;47463;49.884;10.010;2023-03-03T16:00:05;102290;;;8.9;51
61571;BME280;47463;49.884;10.010;2023-03-03T16:05:02;102290;;;8.9;50
61571;BME280;47463;49.884;10.010;2023-03-03T16:10:02;102290;;;8.9;51
61571;BME280;47463;49.884;10.010;2023-03-03T16:15:08;102300;;;9;51
61571;BME280;47463;49.884;10.010;2023-03-03T16:20:02;102290;;;9;52
61571;BME280;47463;49.884;10.010;2023-03-03T16:25:04;102300;;;8.9;52
61571;BME280;47463;49.884;10.010;2023-03-03T16:30:05;102290;;;8.5;52
61571;BME280;47463;49.884;10.010;2023-03-03T16:35:04;102290;;;8.3;54
61571;BME280;47463;49.884;10.010;2023-03-03T16:40:02;102290;;;7.9;54
61571;BME280;47463;49.884;10.010;2023-03-03T16:45:04;102300;;;7.6;54
61571;BME280;47463;49.884;10.010;2023-03-03T16:50:05;102310;;;7.2;54
61571;BME280;47463;49.884;10.010;2023-03-03T16:55:02;102310;;;6.8;55
61571;BME280;47463;49.884;10.010;2023-03-03T17:00:02;102320;;;6.6;56
61571;BME280;47463;49.884;10.010;2023-03-03T17:05:01;102320;;;6.4;56
61571;BME280;47463;49.884;10.010;2023-03-03T17:10:03;102330;;;5.7;58
61571;BME280;47463;49.884;10.010;2023-03-03T17:15:04;102330;;;5.4;59
61571;BME280;47463;49.884;10.010;2023-03-03T17:20:03;102340;;;4.8;61
61571;BME280;47463;49.884;10.010;2023-03-03T17:25:04;102350;;;4.6;62
61571;BME280;47463;49.884;10.010;2023-03-03T17:30:02;102350;;;4.4;63
61571;BME280;47463;49.884;10.010;2023-03-03T17:35:06;102360;;;4.2;63
61571;BME280;47463;49.884;10.010;2023-03-03T17:40:03;102360;;;4;64
61571;BME280;47463;49.884;10.010;2023-03-03T17:45:03;102370;;;3.7;65
61571;BME280;47463;49.884;10.010;2023-03-03T17:50:03;102380;;;3.4;66
61571;BME280;47463;49.884;10.010;2023-03-03T17:55:34;102390;;;3.4;67
61571;BME280;47463;49.884;10.010;2023-03-03T18:00:05;102390;;;3.5;67
61571;BME280;47463;49.884;10.010;2023-03-03T18:05:06;102390;;;3.6;67
61571;BME280;47463;49.884;10.010;2023-03-03T18:10:43;102400;;;3.5;68
61571;BME280;47463;49.884;10.010;2023-03-03T18:15:08;102409.99999999999;;;3.3;68
61571;BME280;47463;49.884;10.010;2023-03-03T18:20:12;102409.99999999999;;;3.1;69
61571;BME280;47463;49.884;10.010;2023-03-03T18:25:02;102420;;;3;70
61571;BME280;47463;49.884;10.010;2023-03-03T18:30:18;102420;;;2.9;70
61571;BME280;47463;49.884;10.010;2023-03-03T18:35:33;102430;;;2.7;71
61571;BME280;47463;49.884;10.010;2023-03-03T18:40:32;102430;;;2.5;71
61571;BME280;47463;49.884;10.010;2023-03-03T18:45:09;102430;;;2.3;72
61571;BME280;47463;49.884;10.010;2023-03-03T18:50:03;102440.00000000001;;;2.2;73
61571;BME280;47463;49.884;10.010;2023-03-03T18:55:19;102440.00000000001;;;2;74
61571;BME280;47463;49.884;10.010;2023-03-03T19:00:08;102440.00000000001;;;1.9;74
61571;BME280;47463;49.884;10.010;2023-03-03T19:05:05;102440.00000000001;;;2.2;74
61571;BME280;47463;49.884;10.010;2023-03-03T19:10:01;102450;;;2.4;73
61571;BME280;47463;49.884;10.010;2023-03-03T19:15:01;102459.99999999999;;;2.5;73
61571;BME280;47463;49.884;10.010;2023-03-03T19:20:01;102470;;;2.6;72
61571;BME280;47463;49.884;10.010;2023-03-03T19:25:02;102470;;;2.5;73
61571;BME280;47463;49.884;10.010;2023-03-03T19:30:06;102470;;;2.1;73
61571;BME280;47463;49.884;10.010;2023-03-03T19:35:03;102470;;;1.8;75
61571;BME280;47463;49.884;10.010;2023-03-03T19:40:01;102480;;;1.6;75
61571;BME280;47463;49.884;10.010;2023-03-03T19:45:04;102480;;;1.8;75
61571;BME280;47463;49.884;10.010;2023-03-03T19:50:04;102480;;;2;74
61571;BME280;47463;49.884;10.010;2023-03-03T19:55:03;102480;;;2.3;72
61571;BME280;47463;49.884;10.010;2023-03-03T20:00:02;102490.00000000001;;;2.3;72
61571;BME280;47463;49.884;10.010;2023-03-03T20:05:04;102490.00000000001;;;2.4;71
61571;BME280;47463;49.884;10.010;2023-03-03T20:10:06;102490.00000000001;;;2.4;70
61571;BME280;47463;49.884;10.010;2023-03-03T20:15:02;102490.00000000001;;;2.4;70
61571;BME280;47463;49.884;10.010;2023-03-03T20:20:02;102509.99999999999;;;1.9;72
61571;BME280;47463;49.884;10.010;2023-03-03T20:25:06;102500;;;1.4;73
61571;BME280;47463;49.884;10.010;2023-03-03T20:30:01;102509.99999999999;;;0.8;76
61571;BME280;47463;49.884;10.010;2023-03-03T20:35:03;102520;;;0.6;77
61571;BME280;47463;49.884;10.010;2023-03-03T20:40:02;102520;;;0.2;78
61571;BME280;47463;49.884;10.010;2023-03-03T20:45:07;102530;;;0.1;79
61571;BME280;47463;49.884;10.010;2023-03-03T20:50:03;102530;;;0.1;80
61571;BME280;47463;49.884;10.010;2023-03-03T20:55:03;102540.00000000001;;;-0.1;80
61571;BME280;47463;49.884;10.010;2023-03-03T21:00:02;102540.00000000001;;;-0.1;81
61571;BME280;47463;49.884;10.010;2023-03-03T21:05:06;102540.00000000001;;;-0.2;81
61571;BME280;47463;49.884;10.010;2023-03-03T21:10:08;102540.00000000001;;;-0.4;81
61571;BME280;47463;49.884;10.010;2023-03-03T21:15:02;102540.00000000001;;;-0.6;82
61571;BME280;47463;49.884;10.010;2023-03-03T21:20:18;102540.00000000001;;;-0.7;83
61571;BME280;47463;49.884;10.010;2023-03-03T21:25:01;102540.00000000001;;;-0.9;84
61571;BME280;47463;49.884;10.010;2023-03-03T21:30:02;102559.99999999999;;;-0.8;84
61571;BME280;47463;49.884;10.010;2023-03-03T21:35:03;102550;;;-1;84
61571;BME280;47463;49.884;10.010;2023-03-03T21:40:11;102559.99999999999;;;-1.2;85
61571;BME280;47463;49.884;10.010;2023-03-03T21:45:08;102559.99999999999;;;-1.3;86
61571;BME280;47463;49.884;10.010;2023-03-03T21:50:01;102559.99999999999;;;-1.2;85
61571;BME280;47463;49.884;10.010;2023-03-03T21:55:01;102559.99999999999;;;-1.4;86
61571;BME280;47463;49.884;10.010;2023-03-03T22:00:01;102559.99999999999;;;-1.2;86
61571;BME280;47463;49.884;10.010;2023-03-03T22:05:01;102550;;;-1.4;86
61571;BME280;47463;49.884;10.010;2023-03-03T22:10:01;102559.99999999999;;;-1.7;87
61571;BME280;47463;49.884;10.010;2023-03-03T22:15:01;102559.99999999999;;;-1.8;87
61571;BME280;47463;49.884;10.010;2023-03-03T22:20:01;102550;;;-1.6;87
61571;BME280;47463;49.884;10.010;2023-03-03T22:25:01;102559.99999999999;;;-1.6;87
61571;BME280;47463;49.884;10.010;2023-03-03T22:30:01;102559.99999999999;;;-1.4;87
61571;BME280;47463;49.884;10.010;2023-03-03T22:35:01;102559.99999999999;;;-1.5;87
61571;BME280;47463;49.884;10.010;2023-03-03T22:40:01;102559.99999999999;;;-1.6;87
61571;BME280;47463;49.884;10.010;2023-03-03T22:45:01;102559.99999999999;;;-1.8;88
61571;BME280;47463;49.884;10.010;2023-03-03T22:50:01;102559.99999999999;;;-1.5;88
61571;BME280;47463;49.884;10.010;2023-03-03T22:55:01;102559.99999999999;;;-1.8;87
61571;BME280;47463;49.884;10.010;2023-03-03T23:00:01;102570;;;-2.1;89
61571;BME280;47463;49.884;10.010;2023-03-03T23:05:01;102570;;;-2.2;89
61571;BME280;47463;49.884;10.010;2023-03-03T23:10:01;102570;;;-2.3;90
61571;BME280;47463;49.884;10.010;2023-03-03T23:15:01;102580;;;-2.1;90
61571;BME280;47463;49.884;10.010;2023-03-03T23:20:01;102580;;;-1.8;89
61571;BME280;47463;49.884;10.010;2023-03-03T23:25:01;102580;;;-1.9;89
61571;BME280;47463;49.884;10.010;2023-03-03T23:30:01;102580;;;-2;89
61571;BME280;47463;49.884;10.010;2023-03-03T23:35:01;102580;;;-2.1;89
61571;BME280;47463;49.884;10.010;2023-03-03T23:40:01;102580;;;-2.2;90
61571;BME280;47463;49.884;10.010;2023-03-03T23:45:01;102580;;;-2.3;90
61571;BME280;47463;49.884;10.010;2023-03-03T23:50:01;102580;;;-2.1;90
61571;BME280;47463;49.884;10.010;2023-03-03T23:55:01;102580;;;-2.1;90
